Time;durP1;ratioP1;P1;durP2;ratioP2;P2;SDS_P1;SDS_P2;PMS_P1;PMS_P2;Temp;Humidity;BMP_temperature;BMP_pressure;BME280_temperature;BME280_humidity;BME280_pressure;Samples;Min_cycle;Max_cycle;Signal;HPM_P1;HPM_P2
2021/04/24 00:01:43;;;;;;;7.30;6.60;;;;;;;;;;5006116;28;20206;-62
2021/04/24 00:04:09;;;;;;;8.20;6.53;;;;;;;;;;5004394;28;20196;-62
2021/04/24 00:06:35;;;;;;;12.53;6.70;;;;;;;;;;5001690;28;20211;-62
2021/04/24 00:09:01;;;;;;;8.43;6.47;;;;;;;;;;5007885;28;20204;-62
2021/04/24 00:11:28;;;;;;;12.60;6.87;;;;;;;;;;5002231;28;20223;-62
2021/04/24 00:13:54;;;;;;;12.20;6.80;;;;;;;;;;4999599;28;20184;-62
2021/04/24 00:16:20;;;;;;;10.77;7.03;;;;;;;;;;5005138;28;20216;-62
2021/04/24 00:18:47;;;;;;;11.93;7.50;;;;;;;;;;5006014;28;20211;-62
2021/04/24 00:21:13;;;;;;;10.07;7.30;;;;;;;;;;5001638;28;20197;-62
2021/04/24 00:23:39;;;;;;;10.50;7.00;;;;;;;;;;5004609;28;20185;-62
2021/04/24 00:26:05;;;;;;;9.70;7.00;;;;;;;;;;5005797;28;20206;-63
2021/04/24 00:28:31;;;;;;;10.33;7.43;;;;;;;;;;5004293;28;20248;-62
2021/04/24 00:30:57;;;;;;;9.43;7.07;;;;;;;;;;5004473;28;20308;-63
2021/04/24 00:33:24;;;;;;;8.83;6.67;;;;;;;;;;5003505;28;20193;-61
2021/04/24 00:35:50;;;;;;;10.10;8.40;;;;;;;;;;4999635;28;20204;-62
2021/04/24 00:38:16;;;;;;;9.30;6.97;;;;;;;;;;5006833;28;20201;-63
2021/04/24 00:40:42;;;;;;;8.03;7.10;;;;;;;;;;5003186;28;20199;-63
2021/04/24 00:43:08;;;;;;;8.53;6.83;;;;;;;;;;4999142;28;20605;-62
2021/04/24 00:45:34;;;;;;;14.23;7.83;;;;;;;;;;5005469;28;20198;-62
2021/04/24 00:48:00;;;;;;;11.07;7.77;;;;;;;;;;5007093;28;20213;-62
2021/04/24 00:50:29;;;;;;;13.37;7.53;;;;;;;;;;4998306;28;20272;-64
2021/04/24 00:52:55;;;;;;;11.33;7.40;;;;;;;;;;5001680;28;20756;-61
2021/04/24 00:55:21;;;;;;;11.27;7.17;;;;;;;;;;5007967;28;20190;-63
2021/04/24 00:57:47;;;;;;;8.47;6.57;;;;;;;;;;4998150;28;20205;-62
2021/04/24 01:00:14;;;;;;;8.13;6.97;;;;;;;;;;4992694;28;20200;-63
2021/04/24 01:02:41;;;;;;;10.63;7.17;;;;;;;;;;5000014;28;20257;-61
2021/04/24 01:05:08;;;;;;;11.47;7.33;;;;;;;;;;4998342;28;20243;-61
2021/04/24 01:07:34;;;;;;;11.30;8.03;;;;;;;;;;5002523;28;20194;-63
2021/04/24 01:10:00;;;;;;;11.23;7.30;;;;;;;;;;5007347;28;20670;-63
2021/04/24 01:12:26;;;;;;;11.90;7.77;;;;;;;;;;5007506;28;20208;-62
2021/04/24 01:14:52;;;;;;;9.83;7.27;;;;;;;;;;5006294;28;20180;-62
2021/04/24 01:17:18;;;;;;;8.77;6.80;;;;;;;;;;5005384;28;20178;-62
2021/04/24 01:19:44;;;;;;;12.00;7.30;;;;;;;;;;5001500;28;20756;-61
2021/04/24 01:22:10;;;;;;;12.07;7.67;;;;;;;;;;5002486;28;20226;-62
2021/04/24 01:24:37;;;;;;;10.43;6.97;;;;;;;;;;5011848;28;20195;-62
2021/04/24 01:27:03;;;;;;;11.87;6.90;;;;;;;;;;5001752;28;20200;-60
2021/04/24 01:29:30;;;;;;;13.47;7.20;;;;;;;;;;5014369;28;20227;-63
2021/04/24 01:31:59;;;;;;;10.27;6.80;;;;;;;;;;5005322;28;20216;-62
2021/04/24 01:34:25;;;;;;;11.33;7.07;;;;;;;;;;5004669;28;20207;-63
2021/04/24 01:36:51;;;;;;;10.73;7.33;;;;;;;;;;5002281;28;20215;-64
2021/04/24 01:39:17;;;;;;;9.33;6.83;;;;;;;;;;5009734;28;20675;-61
2021/04/24 01:41:43;;;;;;;12.10;7.50;;;;;;;;;;5006608;28;20200;-62
2021/04/24 01:44:09;;;;;;;11.87;6.80;;;;;;;;;;5009170;28;20207;-61
2021/04/24 01:46:35;;;;;;;13.77;7.60;;;;;;;;;;5014331;28;20550;-62
2021/04/24 01:49:01;;;;;;;8.90;7.03;;;;;;;;;;5010767;28;20460;-62
2021/04/24 01:51:27;;;;;;;10.93;7.20;;;;;;;;;;5011012;28;20708;-64
2021/04/24 01:53:54;;;;;;;8.87;6.93;;;;;;;;;;5004488;28;20185;-65
2021/04/24 01:56:21;;;;;;;12.17;7.23;;;;;;;;;;5005754;28;20189;-61
2021/04/24 01:58:47;;;;;;;10.33;7.17;;;;;;;;;;5009621;28;20240;-61
2021/04/24 02:01:13;;;;;;;11.07;7.00;;;;;;;;;;5009905;28;20568;-62
2021/04/24 02:03:40;;;;;;;9.27;7.17;;;;;;;;;;5007246;28;20583;-61
2021/04/24 02:06:06;;;;;;;8.03;6.80;;;;;;;;;;4998578;28;20220;-62
2021/04/24 02:08:38;;;;;;;11.67;7.63;;;;;;;;;;5000187;28;20304;-63
2021/04/24 02:11:05;;;;;;;7.87;7.00;;;;;;;;;;5004189;28;20238;-62
2021/04/24 02:13:32;;;;;;;9.23;7.67;;;;;;;;;;5009374;28;20529;-62
2021/04/24 02:15:59;;;;;;;8.43;7.00;;;;;;;;;;5009269;28;20296;-61
2021/04/24 02:18:25;;;;;;;9.70;7.50;;;;;;;;;;5004785;28;20219;-61
2021/04/24 02:20:51;;;;;;;12.13;7.37;;;;;;;;;;5011386;28;20727;-61
2021/04/24 02:23:17;;;;;;;11.13;7.17;;;;;;;;;;5000059;28;20295;-61
2021/04/24 02:25:44;;;;;;;9.50;7.27;;;;;;;;;;5005063;28;20192;-61
2021/04/24 02:28:10;;;;;;;9.20;6.53;;;;;;;;;;5007666;28;20231;-61
2021/04/24 02:30:36;;;;;;;9.47;6.97;;;;;;;;;;5008957;28;20251;-61
2021/04/24 02:33:03;;;;;;;11.03;7.87;;;;;;;;;;5001981;28;20200;-62
2021/04/24 02:35:32;;;;;;;12.13;7.47;;;;;;;;;;5004682;28;20192;-62
2021/04/24 02:37:58;;;;;;;10.77;7.50;;;;;;;;;;5011813;28;20262;-61
2021/04/24 02:40:24;;;;;;;13.27;8.37;;;;;;;;;;5006495;28;20682;-61
2021/04/24 02:42:50;;;;;;;11.20;8.13;;;;;;;;;;5006292;28;20221;-61
2021/04/24 02:45:16;;;;;;;12.43;7.90;;;;;;;;;;5003840;28;20187;-60
2021/04/24 02:47:43;;;;;;;9.87;7.13;;;;;;;;;;5005491;28;20221;-61
2021/04/24 02:50:10;;;;;;;12.20;8.30;;;;;;;;;;5004980;28;20570;-60
2021/04/24 02:52:36;;;;;;;9.53;7.43;;;;;;;;;;5008430;28;20187;-62
2021/04/24 02:55:04;;;;;;;9.63;7.40;;;;;;;;;;5006833;28;20268;-63
2021/04/24 02:57:30;;;;;;;10.37;7.70;;;;;;;;;;5010860;28;20656;-61
2021/04/24 02:59:56;;;;;;;10.63;7.90;;;;;;;;;;5003843;28;20227;-61
2021/04/24 03:02:22;;;;;;;9.77;7.73;;;;;;;;;;5005254;28;20196;-60
2021/04/24 03:04:48;;;;;;;10.30;8.53;;;;;;;;;;5000924;28;20243;-61
2021/04/24 03:07:14;;;;;;;12.70;7.87;;;;;;;;;;5005850;28;20192;-63
2021/04/24 03:09:40;;;;;;;10.03;7.80;;;;;;;;;;5000331;28;20584;-63
2021/04/24 03:12:06;;;;;;;9.83;7.97;;;;;;;;;;5001539;28;20207;-61
2021/04/24 03:14:34;;;;;;;13.60;8.30;;;;;;;;;;5002642;28;20195;-62
2021/04/24 03:17:00;;;;;;;10.80;7.63;;;;;;;;;;5001009;28;20190;-62
2021/04/24 03:19:26;;;;;;;10.33;8.13;;;;;;;;;;5000163;28;20850;-62
2021/04/24 03:21:52;;;;;;;10.27;8.03;;;;;;;;;;5004727;28;20191;-62
2021/04/24 03:24:18;;;;;;;8.17;7.17;;;;;;;;;;5005429;28;20190;-61
2021/04/24 03:26:44;;;;;;;10.03;7.70;;;;;;;;;;4995026;28;20226;-60
2021/04/24 03:29:10;;;;;;;13.60;7.63;;;;;;;;;;5002923;28;20224;-63
2021/04/24 03:31:36;;;;;;;13.83;8.63;;;;;;;;;;5004298;28;20219;-63
2021/04/24 03:34:02;;;;;;;12.70;8.10;;;;;;;;;;5000479;28;20667;-63
2021/04/24 03:36:28;;;;;;;12.87;7.60;;;;;;;;;;4998824;28;20203;-63
2021/04/24 03:38:54;;;;;;;10.60;8.07;;;;;;;;;;5003993;28;20205;-65
2021/04/24 03:41:20;;;;;;;12.57;8.53;;;;;;;;;;5004152;28;20274;-63
2021/04/24 03:43:46;;;;;;;13.63;8.83;;;;;;;;;;5002430;28;20784;-62
2021/04/24 03:46:12;;;;;;;12.90;8.67;;;;;;;;;;5002083;28;20191;-62
2021/04/24 03:48:38;;;;;;;17.73;12.47;;;;;;;;;;5003125;28;20220;-62
2021/04/24 03:51:04;;;;;;;15.53;9.13;;;;;;;;;;5000941;28;20245;-62
2021/04/24 03:53:30;;;;;;;18.97;8.70;;;;;;;;;;5006224;28;20205;-61
2021/04/24 03:55:56;;;;;;;20.97;9.03;;;;;;;;;;4997478;28;20187;-62
2021/04/24 03:58:22;;;;;;;16.47;8.77;;;;;;;;;;4999421;28;20214;-61
2021/04/24 04:00:48;;;;;;;11.10;8.37;;;;;;;;;;5005635;28;20225;-61
2021/04/24 04:03:14;;;;;;;15.13;8.07;;;;;;;;;;5000522;28;20190;-61
2021/04/24 04:05:42;;;;;;;11.90;8.47;;;;;;;;;;5002017;28;20244;-61
2021/04/24 04:08:09;;;;;;;16.80;8.47;;;;;;;;;;5004636;28;20296;-62
2021/04/24 04:10:35;;;;;;;14.73;8.33;;;;;;;;;;4999817;28;20690;-63
2021/04/24 04:13:02;;;;;;;11.40;8.30;;;;;;;;;;5006033;28;20656;-61
2021/04/24 04:15:29;;;;;;;16.87;8.40;;;;;;;;;;5008064;28;20186;-63
2021/04/24 04:17:58;;;;;;;13.03;7.97;;;;;;;;;;4998303;28;20279;-62
2021/04/24 04:20:24;;;;;;;13.43;8.20;;;;;;;;;;4997722;28;20276;-62
2021/04/24 04:22:51;;;;;;;13.70;8.73;;;;;;;;;;5010346;28;20192;-62
2021/04/24 04:25:17;;;;;;;12.30;8.73;;;;;;;;;;5006731;28;20259;-61
2021/04/24 04:27:43;;;;;;;12.10;7.73;;;;;;;;;;4997156;28;20366;-61
2021/04/24 04:30:10;;;;;;;14.83;8.40;;;;;;;;;;5006679;28;20281;-61
2021/04/24 04:32:36;;;;;;;13.63;8.47;;;;;;;;;;5002329;28;20607;-61
2021/04/24 04:35:03;;;;;;;13.57;8.23;;;;;;;;;;5004583;28;20867;-64
2021/04/24 04:37:29;;;;;;;10.27;8.17;;;;;;;;;;5001593;28;20188;-62
2021/04/24 04:39:55;;;;;;;13.77;8.33;;;;;;;;;;4998113;28;20185;-63
2021/04/24 04:42:21;;;;;;;14.00;8.37;;;;;;;;;;5000842;28;20212;-61
2021/04/24 04:44:47;;;;;;;11.20;8.00;;;;;;;;;;5004303;28;20664;-63
2021/04/24 04:47:13;;;;;;;10.50;8.07;;;;;;;;;;4991784;28;20220;-61
2021/04/24 04:49:39;;;;;;;10.57;8.03;;;;;;;;;;5010292;28;20234;-62
2021/04/24 04:52:05;;;;;;;14.10;8.27;;;;;;;;;;5002013;28;20213;-63
2021/04/24 04:54:31;;;;;;;13.03;8.23;;;;;;;;;;5005716;28;20194;-60
2021/04/24 04:56:57;;;;;;;15.13;9.20;;;;;;;;;;5000940;28;20192;-62
2021/04/24 04:59:23;;;;;;;15.13;8.57;;;;;;;;;;5003504;28;20231;-62
2021/04/24 05:01:49;;;;;;;14.87;8.30;;;;;;;;;;5006027;28;20271;-61
2021/04/24 05:04:15;;;;;;;14.13;8.37;;;;;;;;;;5008221;28;20196;-62
2021/04/24 05:06:42;;;;;;;15.17;9.07;;;;;;;;;;5009090;28;20261;-63
2021/04/24 05:09:08;;;;;;;11.07;8.90;;;;;;;;;;5002749;28;20209;-63
2021/04/24 05:11:34;;;;;;;15.13;8.37;;;;;;;;;;5001851;28;20209;-64
2021/04/24 05:14:00;;;;;;;14.33;9.07;;;;;;;;;;5006531;28;20295;-63
2021/04/24 05:16:26;;;;;;;14.77;8.93;;;;;;;;;;5003390;28;20712;-63
2021/04/24 05:18:52;;;;;;;15.90;9.67;;;;;;;;;;5006451;28;20207;-63
2021/04/24 05:21:18;;;;;;;13.53;9.07;;;;;;;;;;5002353;28;20562;-62
2021/04/24 05:23:44;;;;;;;15.17;9.43;;;;;;;;;;5006268;28;20277;-61
2021/04/24 05:26:10;;;;;;;14.60;10.57;;;;;;;;;;5003863;28;20263;-61
2021/04/24 05:28:36;;;;;;;13.73;10.37;;;;;;;;;;5002564;28;20703;-62
2021/04/24 05:31:02;;;;;;;12.07;9.47;;;;;;;;;;5004004;28;20244;-63
2021/04/24 05:33:28;;;;;;;13.03;9.30;;;;;;;;;;5006501;28;20203;-62
2021/04/24 05:35:55;;;;;;;15.20;9.20;;;;;;;;;;5007887;28;20276;-63
2021/04/24 05:38:21;;;;;;;13.13;8.30;;;;;;;;;;5002886;28;20586;-63
2021/04/24 05:40:47;;;;;;;12.17;9.20;;;;;;;;;;5011791;28;20190;-63
2021/04/24 05:43:13;;;;;;;12.70;8.60;;;;;;;;;;5001625;28;20318;-63
2021/04/24 05:45:39;;;;;;;15.47;8.97;;;;;;;;;;5005649;28;20194;-62
2021/04/24 05:48:05;;;;;;;11.73;8.60;;;;;;;;;;5003908;28;20204;-62
2021/04/24 05:50:31;;;;;;;13.70;8.67;;;;;;;;;;5010030;28;20289;-62
2021/04/24 05:52:57;;;;;;;11.10;9.00;;;;;;;;;;5003656;28;20229;-62
2021/04/24 05:55:23;;;;;;;11.87;9.93;;;;;;;;;;5008484;28;20189;-63
2021/04/24 05:57:49;;;;;;;16.80;9.13;;;;;;;;;;5002790;28;20207;-64
2021/04/24 06:00:17;;;;;;;15.43;9.33;;;;;;;;;;4997313;28;20225;-63
2021/04/24 06:02:43;;;;;;;16.83;10.07;;;;;;;;;;5005684;28;20196;-63
2021/04/24 06:05:09;;;;;;;13.70;8.57;;;;;;;;;;5005690;28;20185;-64
2021/04/24 06:07:39;;;;;;;14.27;8.20;;;;;;;;;;5003050;28;20189;-65
2021/04/24 06:10:06;;;;;;;13.53;9.17;;;;;;;;;;5003617;28;20199;-64
2021/04/24 06:12:32;;;;;;;10.83;8.70;;;;;;;;;;5011316;28;20189;-63
2021/04/24 06:14:58;;;;;;;17.43;9.07;;;;;;;;;;5005857;28;20181;-63
2021/04/24 06:17:25;;;;;;;17.30;9.40;;;;;;;;;;5009110;28;20193;-64
2021/04/24 06:19:51;;;;;;;13.60;9.17;;;;;;;;;;4998139;28;20208;-64
2021/04/24 06:22:17;;;;;;;12.73;9.10;;;;;;;;;;5004095;28;20267;-65
2021/04/24 06:24:43;;;;;;;17.03;9.90;;;;;;;;;;5005440;28;20667;-64
2021/04/24 06:27:09;;;;;;;14.23;10.30;;;;;;;;;;5007079;28;20300;-63
2021/04/24 06:29:35;;;;;;;16.60;9.90;;;;;;;;;;5003850;28;20232;-64
2021/04/24 06:32:01;;;;;;;16.87;9.17;;;;;;;;;;5007447;28;20643;-63
2021/04/24 06:34:27;;;;;;;11.60;8.57;;;;;;;;;;5005135;28;20187;-64
2021/04/24 06:36:53;;;;;;;12.37;8.07;;;;;;;;;;5001261;28;20232;-64
2021/04/24 06:39:19;;;;;;;15.73;9.30;;;;;;;;;;5002101;28;20241;-64
2021/04/24 06:41:45;;;;;;;15.90;9.20;;;;;;;;;;5009284;28;20575;-65
2021/04/24 06:44:11;;;;;;;14.23;9.17;;;;;;;;;;5002468;28;20562;-64
2021/04/24 06:46:37;;;;;;;13.73;9.80;;;;;;;;;;5002512;28;20566;-65
2021/04/24 06:49:04;;;;;;;16.80;10.00;;;;;;;;;;5000957;28;20200;-66
2021/04/24 06:51:30;;;;;;;14.70;9.63;;;;;;;;;;4998747;28;20209;-65
2021/04/24 06:53:55;;;;;;;13.38;9.60;;;;;;;;;;5000138;28;20243;-66
2021/04/24 06:56:21;;;;;;;14.02;9.30;;;;;;;;;;5001906;28;20657;-64
2021/04/24 06:58:48;;;;;;;16.77;8.73;;;;;;;;;;5009464;28;20301;-64
2021/04/24 07:01:14;;;;;;;12.07;9.25;;;;;;;;;;5002498;28;20219;-66
2021/04/24 07:03:40;;;;;;;12.15;9.20;;;;;;;;;;5003320;28;20188;-65
2021/04/24 07:06:06;;;;;;;14.73;8.27;;;;;;;;;;4997687;28;20554;-65
2021/04/24 07:08:32;;;;;;;12.82;8.57;;;;;;;;;;5006682;28;20232;-65
2021/04/24 07:10:58;;;;;;;15.55;8.95;;;;;;;;;;5007451;28;20212;-65
2021/04/24 07:13:26;;;;;;;14.65;9.20;;;;;;;;;;5007926;28;20200;-65
2021/04/24 07:15:52;;;;;;;12.63;8.52;;;;;;;;;;5002387;28;20440;-65
2021/04/24 07:18:18;;;;;;;13.05;8.82;;;;;;;;;;5009881;28;20228;-64
2021/04/24 07:20:44;;;;;;;14.25;8.73;;;;;;;;;;5003671;28;20643;-66
2021/04/24 07:23:10;;;;;;;15.55;8.77;;;;;;;;;;5005350;28;20207;-64
2021/04/24 07:25:36;;;;;;;13.20;8.35;;;;;;;;;;5007359;28;20194;-65
2021/04/24 07:28:02;;;;;;;11.82;8.95;;;;;;;;;;5003259;28;20217;-65
2021/04/24 07:30:29;;;;;;;12.05;8.77;;;;;;;;;;5001926;28;20932;-64
2021/04/24 07:32:55;;;;;;;12.98;8.57;;;;;;;;;;5005370;28;20645;-65
2021/04/24 07:35:21;;;;;;;12.85;8.63;;;;;;;;;;5008756;28;20209;-65
2021/04/24 07:37:47;;;;;;;11.80;8.68;;;;;;;;;;5005076;28;20232;-66
2021/04/24 07:40:14;;;;;;;13.38;8.40;;;;;;;;;;5004632;28;20265;-65
2021/04/24 07:42:40;;;;;;;13.52;8.30;;;;;;;;;;5009278;28;20196;-64
2021/04/24 07:45:07;;;;;;;12.40;8.38;;;;;;;;;;5008915;28;20181;-64
2021/04/24 07:47:33;;;;;;;10.50;8.40;;;;;;;;;;5008808;28;20193;-64
2021/04/24 07:49:59;;;;;;;13.38;8.23;;;;;;;;;;5005651;28;20273;-64
2021/04/24 07:52:25;;;;;;;14.07;7.88;;;;;;;;;;5008228;28;20205;-64
2021/04/24 07:54:51;;;;;;;13.88;7.80;;;;;;;;;;5003405;28;20182;-65
2021/04/24 07:57:17;;;;;;;12.35;9.15;;;;;;;;;;5001534;28;20185;-64
2021/04/24 07:59:44;;;;;;;17.77;8.80;;;;;;;;;;5010376;28;20212;-66
2021/04/24 08:02:12;;;;;;;9.75;7.38;;;;;;;;;;5000976;28;20182;-66
2021/04/24 08:04:38;;;;;;;11.52;8.00;;;;;;;;;;5009686;28;20188;-65
2021/04/24 08:07:07;;;;;;;18.60;8.05;;;;;;;;;;5004328;28;20304;-64
2021/04/24 08:09:33;;;;;;;11.63;7.50;;;;;;;;;;5005343;28;20213;-65
2021/04/24 08:11:59;;;;;;;12.48;6.90;;;;;;;;;;4999667;28;20205;-65
2021/04/24 08:14:25;;;;;;;10.95;8.70;;;;;;;;;;5004063;28;20235;-64
2021/04/24 08:16:51;;;;;;;10.43;7.40;;;;;;;;;;5000617;28;20194;-65
2021/04/24 08:19:17;;;;;;;9.98;7.38;;;;;;;;;;5002946;28;20204;-65
2021/04/24 08:21:44;;;;;;;10.88;7.20;;;;;;;;;;4996601;28;20276;-64
2021/04/24 08:24:10;;;;;;;10.48;7.45;;;;;;;;;;5010205;28;20192;-65
2021/04/24 08:26:36;;;;;;;12.52;7.65;;;;;;;;;;5009075;28;20738;-64
2021/04/24 08:29:05;;;;;;;9.88;7.20;;;;;;;;;;5005556;28;20216;-65
2021/04/24 08:31:32;;;;;;;10.40;6.55;;;;;;;;;;5009319;28;20800;-65
2021/04/24 08:33:58;;;;;;;11.35;7.53;;;;;;;;;;5008887;28;20663;-64
2021/04/24 08:36:24;;;;;;;11.63;7.88;;;;;;;;;;5006246;28;20188;-65
2021/04/24 08:38:50;;;;;;;9.10;7.65;;;;;;;;;;5004078;28;20212;-65
2021/04/24 08:41:16;;;;;;;9.70;7.50;;;;;;;;;;5007902;28;20185;-65
2021/04/24 08:43:42;;;;;;;11.95;7.53;;;;;;;;;;5011676;28;20661;-65
2021/04/24 08:46:08;;;;;;;12.90;8.00;;;;;;;;;;5005562;28;20185;-64
2021/04/24 08:48:35;;;;;;;8.68;7.30;;;;;;;;;;5008215;28;20201;-65
2021/04/24 08:51:01;;;;;;;12.73;7.40;;;;;;;;;;5008611;28;20210;-64
2021/04/24 08:53:28;;;;;;;12.52;8.48;;;;;;;;;;5010281;28;20894;-64
2021/04/24 08:55:54;;;;;;;11.30;7.65;;;;;;;;;;5009040;28;20544;-64
2021/04/24 08:58:20;;;;;;;13.73;8.15;;;;;;;;;;5002394;28;20209;-64
2021/04/24 09:00:48;;;;;;;16.90;8.70;;;;;;;;;;5010396;28;20244;-64
2021/04/24 09:03:18;;;;;;;9.85;7.07;;;;;;;;;;5011842;28;20189;-64
2021/04/24 09:05:44;;;;;;;10.02;6.65;;;;;;;;;;5006752;28;20657;-63
2021/04/24 09:08:11;;;;;;;9.60;6.97;;;;;;;;;;5006302;28;20219;-64
2021/04/24 09:10:41;;;;;;;9.93;6.75;;;;;;;;;;5008240;28;20774;-64
2021/04/24 09:13:07;;;;;;;10.95;7.10;;;;;;;;;;5003223;28;20197;-64
2021/04/24 09:15:34;;;;;;;11.27;7.00;;;;;;;;;;5004351;28;20216;-64
2021/04/24 09:18:03;;;;;;;12.77;6.93;;;;;;;;;;5010506;28;20278;-64
2021/04/24 09:20:30;;;;;;;9.27;7.35;;;;;;;;;;5005021;28;20209;-64
2021/04/24 09:23:01;;;;;;;12.70;8.05;;;;;;;;;;5006127;28;20215;-64
2021/04/24 09:25:31;;;;;;;8.63;6.53;;;;;;;;;;4999265;28;20189;-64
2021/04/24 09:27:57;;;;;;;9.57;7.05;;;;;;;;;;5009663;28;20209;-65
2021/04/24 09:30:26;;;;;;;11.07;7.25;;;;;;;;;;5004618;28;20200;-64
2021/04/24 09:32:52;;;;;;;11.38;6.45;;;;;;;;;;5005875;28;20289;-65
2021/04/24 09:35:20;;;;;;;11.57;7.53;;;;;;;;;;5016469;28;20176;-64
2021/04/24 09:37:55;;;;;;;11.40;6.80;;;;;;;;;;5004837;28;20636;-64
2021/04/24 09:40:21;;;;;;;19.20;8.02;;;;;;;;;;5004958;28;20188;-64
2021/04/24 09:42:47;;;;;;;13.73;7.55;;;;;;;;;;5000830;28;20244;-64
2021/04/24 09:45:27;;;;;;;18.92;7.50;;;;;;;;;;5001851;28;20555;-64
2021/04/24 09:47:54;;;;;;;21.70;7.40;;;;;;;;;;5007224;28;20243;-65
2021/04/24 09:50:21;;;;;;;18.25;7.35;;;;;;;;;;5003130;28;20205;-64
2021/04/24 09:52:47;;;;;;;11.07;7.03;;;;;;;;;;5002810;28;20193;-64
2021/04/24 09:55:15;;;;;;;12.23;7.25;;;;;;;;;;5007690;28;20186;-64
2021/04/24 09:57:41;;;;;;;12.23;6.93;;;;;;;;;;5005093;28;20181;-64
2021/04/24 10:00:10;;;;;;;9.57;6.43;;;;;;;;;;5007252;28;20181;-65
2021/04/24 10:02:40;;;;;;;12.88;6.95;;;;;;;;;;5002335;28;20196;-64
2021/04/24 10:05:09;;;;;;;8.50;6.93;;;;;;;;;;5013182;28;20184;-63
2021/04/24 10:07:39;;;;;;;11.50;6.68;;;;;;;;;;5007425;28;20224;-64
2021/04/24 10:10:06;;;;;;;7.45;6.65;;;;;;;;;;5004914;28;20185;-64
2021/04/24 10:12:32;;;;;;;21.63;7.50;;;;;;;;;;5014512;28;20242;-63
2021/04/24 10:14:58;;;;;;;40.60;9.80;;;;;;;;;;5010703;28;20204;-63
2021/04/24 10:17:26;;;;;;;9.73;6.78;;;;;;;;;;5002071;28;20623;-63
2021/04/24 10:19:52;;;;;;;8.88;6.10;;;;;;;;;;5003665;28;20189;-64
2021/04/24 10:22:19;;;;;;;11.63;6.35;;;;;;;;;;5007167;28;20189;-64
2021/04/24 10:24:46;;;;;;;11.98;6.45;;;;;;;;;;5001153;28;20197;-64
2021/04/24 10:27:12;;;;;;;8.32;5.45;;;;;;;;;;5005436;28;20275;-64
2021/04/24 10:29:39;;;;;;;7.88;5.25;;;;;;;;;;5006791;28;20598;-64
2021/04/24 10:32:06;;;;;;;7.25;5.43;;;;;;;;;;5000484;28;20213;-64
2021/04/24 10:34:32;;;;;;;7.97;5.28;;;;;;;;;;5005878;28;20192;-65
2021/04/24 10:36:58;;;;;;;7.40;5.13;;;;;;;;;;5005630;28;20196;-65
2021/04/24 10:39:33;;;;;;;10.27;6.00;;;;;;;;;;5005694;28;20573;-65
2021/04/24 10:42:05;;;;;;;9.88;7.38;;;;;;;;;;5001810;28;20188;-64
2021/04/24 10:44:47;;;;;;;10.98;6.90;;;;;;;;;;5003511;28;20234;-64
2021/04/24 10:47:16;;;;;;;10.27;6.82;;;;;;;;;;5002060;28;20193;-65
2021/04/24 10:49:55;;;;;;;8.20;6.70;;;;;;;;;;5002477;28;20213;-63
2021/04/24 10:52:24;;;;;;;10.63;6.45;;;;;;;;;;5005350;28;20212;-64
2021/04/24 10:55:09;;;;;;;8.43;6.30;;;;;;;;;;5005438;28;20262;-64
2021/04/24 10:57:38;;;;;;;10.55;6.15;;;;;;;;;;5005385;28;20189;-64
2021/04/24 11:00:08;;;;;;;10.50;7.05;;;;;;;;;;5008434;28;20184;-64
2021/04/24 11:02:49;;;;;;;9.05;6.20;;;;;;;;;;5002645;28;20197;-64
2021/04/24 11:05:27;;;;;;;7.55;6.15;;;;;;;;;;5005632;28;20620;-64
2021/04/24 11:08:19;;;;;;;9.18;6.18;;;;;;;;;;4999999;28;20213;-64
2021/04/24 11:10:54;;;;;;;9.65;6.53;;;;;;;;;;5010273;28;20210;-64
2021/04/24 11:13:21;;;;;;;9.88;6.68;;;;;;;;;;5004650;28;20172;-64
2021/04/24 11:15:48;;;;;;;9.00;6.00;;;;;;;;;;5001659;28;20184;-64
2021/04/24 11:18:16;;;;;;;10.48;6.13;;;;;;;;;;5001360;28;20263;-65
2021/04/24 11:20:59;;;;;;;11.02;6.40;;;;;;;;;;5003016;28;20453;-64
2021/04/24 11:23:31;;;;;;;11.75;6.80;;;;;;;;;;5004172;28;20272;-64
2021/04/24 11:26:04;;;;;;;7.18;6.47;;;;;;;;;;5000400;28;20204;-63
2021/04/24 11:28:31;;;;;;;8.38;6.20;;;;;;;;;;5009656;28;20205;-62
2021/04/24 11:31:01;;;;;;;6.45;5.45;;;;;;;;;;5003273;28;20236;-64
2021/04/24 11:33:37;;;;;;;8.90;5.80;;;;;;;;;;5004360;28;20237;-62
2021/04/24 11:36:16;;;;;;;7.53;5.07;;;;;;;;;;5001241;28;20320;-64
2021/04/24 11:38:58;;;;;;;8.95;5.65;;;;;;;;;;5007265;28;20224;-62
2021/04/24 11:41:36;;;;;;;6.72;5.60;;;;;;;;;;5001342;28;20217;-62
2021/04/24 11:44:17;;;;;;;12.65;7.05;;;;;;;;;;5009023;28;20235;-62
2021/04/24 11:46:44;;;;;;;8.02;5.03;;;;;;;;;;5010111;28;20184;-63
2021/04/24 11:49:10;;;;;;;8.32;5.63;;;;;;;;;;5002049;28;20208;-63
2021/04/24 11:51:36;;;;;;;7.88;5.85;;;;;;;;;;5002177;28;20212;-62
2021/04/24 11:54:03;;;;;;;9.40;5.80;;;;;;;;;;5007200;28;20207;-63
2021/04/24 11:56:29;;;;;;;8.40;5.97;;;;;;;;;;5004344;28;20244;-66
2021/04/24 11:58:55;;;;;;;8.98;5.75;;;;;;;;;;5001427;28;20209;-64
2021/04/24 12:01:25;;;;;;;10.88;5.85;;;;;;;;;;5000163;28;20691;-63
2021/04/24 12:03:51;;;;;;;9.05;6.03;;;;;;;;;;5002487;28;20196;-63
2021/04/24 12:06:33;;;;;;;6.93;5.80;;;;;;;;;;5001469;28;20193;-62
2021/04/24 12:09:00;;;;;;;11.52;5.75;;;;;;;;;;5002406;28;20207;-63
2021/04/24 12:11:26;;;;;;;8.43;6.13;;;;;;;;;;4999591;28;20699;-63
2021/04/24 12:13:52;;;;;;;11.32;5.57;;;;;;;;;;4997106;28;20704;-63
2021/04/24 12:16:18;;;;;;;6.72;5.18;;;;;;;;;;5003258;28;20193;-63
2021/04/24 12:18:44;;;;;;;8.10;5.85;;;;;;;;;;5004693;28;20706;-64
2021/04/24 12:21:24;;;;;;;9.10;5.82;;;;;;;;;;5000181;28;20205;-63
2021/04/24 12:23:50;;;;;;;7.90;5.78;;;;;;;;;;5010207;28;20196;-63
2021/04/24 12:26:16;;;;;;;8.20;5.95;;;;;;;;;;5001954;28;20566;-63
2021/04/24 12:28:45;;;;;;;7.22;5.53;;;;;;;;;;5005007;28;20288;-63
2021/04/24 12:31:11;;;;;;;10.40;6.10;;;;;;;;;;5001223;28;20260;-63
2021/04/24 12:33:37;;;;;;;8.40;6.10;;;;;;;;;;5005232;28;20603;-63
2021/04/24 12:36:05;;;;;;;9.32;5.75;;;;;;;;;;5004820;28;20185;-63
2021/04/24 12:38:31;;;;;;;7.40;6.13;;;;;;;;;;5004260;28;20251;-63
2021/04/24 12:40:58;;;;;;;7.05;6.05;;;;;;;;;;5005648;28;20188;-63
2021/04/24 12:43:26;;;;;;;6.28;5.60;;;;;;;;;;5003235;28;20257;-63
2021/04/24 12:45:53;;;;;;;7.07;6.15;;;;;;;;;;5000347;28;20192;-63
2021/04/24 12:48:20;;;;;;;6.72;5.32;;;;;;;;;;5008321;28;20209;-63
2021/04/24 12:50:48;;;;;;;8.15;6.20;;;;;;;;;;5003831;28;20299;-62
2021/04/24 12:53:27;;;;;;;7.57;6.35;;;;;;;;;;5002598;28;20192;-63
2021/04/24 12:56:00;;;;;;;6.57;5.55;;;;;;;;;;5000212;28;20264;-63
2021/04/24 12:58:30;;;;;;;8.82;6.07;;;;;;;;;;5003901;28;20209;-63
2021/04/24 13:00:56;;;;;;;7.40;6.22;;;;;;;;;;5006155;28;20206;-63
2021/04/24 13:03:29;;;;;;;7.53;5.80;;;;;;;;;;5001158;28;20193;-63
2021/04/24 13:05:57;;;;;;;8.65;6.07;;;;;;;;;;5003203;28;20256;-63
2021/04/24 13:08:23;;;;;;;8.50;6.30;;;;;;;;;;5002651;28;20209;-62
2021/04/24 13:11:04;;;;;;;8.57;6.07;;;;;;;;;;5007148;28;20715;-62
2021/04/24 13:13:30;;;;;;;9.27;6.75;;;;;;;;;;5003698;28;20687;-63
2021/04/24 13:15:56;;;;;;;10.10;6.90;;;;;;;;;;5005939;28;20182;-63
2021/04/24 13:18:23;;;;;;;11.35;7.07;;;;;;;;;;5007170;28;20205;-62
2021/04/24 13:20:49;;;;;;;12.38;7.35;;;;;;;;;;5003850;28;20193;-62
2021/04/24 13:23:15;;;;;;;10.75;6.70;;;;;;;;;;5004463;28;20624;-62
2021/04/24 13:25:41;;;;;;;8.77;6.85;;;;;;;;;;5009512;28;20203;-63
2021/04/24 13:28:08;;;;;;;8.38;7.50;;;;;;;;;;5006257;28;20963;-62
2021/04/24 13:30:41;;;;;;;9.90;7.25;;;;;;;;;;5004936;28;20204;-63
2021/04/24 13:33:08;;;;;;;7.88;6.47;;;;;;;;;;5009929;28;20644;-63
2021/04/24 13:35:48;;;;;;;10.48;7.40;;;;;;;;;;5004934;28;20230;-63
2021/04/24 13:38:15;;;;;;;9.77;7.13;;;;;;;;;;5002228;28;20200;-63
2021/04/24 13:40:42;;;;;;;9.52;7.55;;;;;;;;;;5002031;28;20186;-63
2021/04/24 13:43:08;;;;;;;10.40;8.80;;;;;;;;;;5010685;28;20184;-63
2021/04/24 13:45:35;;;;;;;8.25;7.28;;;;;;;;;;5007412;28;20264;-63
2021/04/24 13:48:06;;;;;;;7.95;6.90;;;;;;;;;;5007801;28;20204;-63
2021/04/24 13:50:32;;;;;;;8.43;6.97;;;;;;;;;;5010520;28;20271;-64
2021/04/24 13:52:58;;;;;;;10.10;7.70;;;;;;;;;;5004715;28;20233;-64
2021/04/24 13:55:24;;;;;;;10.52;7.32;;;;;;;;;;5001747;28;20604;-63
2021/04/24 13:58:01;;;;;;;10.02;7.85;;;;;;;;;;5005481;28;20228;-64
2021/04/24 14:00:27;;;;;;;9.13;6.95;;;;;;;;;;5012720;28;20655;-63
2021/04/24 14:02:53;;;;;;;10.05;7.47;;;;;;;;;;4998713;28;20181;-64
2021/04/24 14:05:19;;;;;;;8.13;7.13;;;;;;;;;;5002567;28;20609;-63
2021/04/24 14:07:45;;;;;;;7.97;6.70;;;;;;;;;;5004413;28;20274;-62
2021/04/24 14:10:11;;;;;;;9.35;6.25;;;;;;;;;;5001681;28;20680;-63
2021/04/24 14:12:37;;;;;;;9.45;7.05;;;;;;;;;;4999705;28;20240;-62
2021/04/24 14:15:04;;;;;;;10.15;7.40;;;;;;;;;;5004511;28;20177;-62
2021/04/24 14:17:30;;;;;;;11.35;7.57;;;;;;;;;;5006114;28;20188;-64
2021/04/24 14:19:56;;;;;;;8.10;7.30;;;;;;;;;;5001959;28;20177;-64
2021/04/24 14:22:22;;;;;;;9.98;7.38;;;;;;;;;;5006760;28;20561;-63
2021/04/24 14:24:48;;;;;;;8.48;7.28;;;;;;;;;;5003019;28;20292;-62
2021/04/24 14:27:18;;;;;;;11.13;7.45;;;;;;;;;;5000386;28;20216;-62
2021/04/24 14:29:44;;;;;;;10.02;7.38;;;;;;;;;;5006008;28;20204;-64
2021/04/24 14:32:10;;;;;;;8.88;7.00;;;;;;;;;;4998091;28;20593;-63
2021/04/24 14:34:37;;;;;;;8.35;7.13;;;;;;;;;;5006962;28;20173;-62